sensor_id;sensor_type;location;lat;lon;timestamp;P1;durP1;ratioP1;P2;durP2;ratioP2
9789;SDS011;4934;50.852;8.098;2022-08-30T00:00:35;11.57;;;3.22;;
9789;SDS011;4934;50.852;8.098;2022-08-30T00:03:19;9.70;;;3.22;;
9789;SDS011;4934;50.852;8.098;2022-08-30T00:05:45;7.22;;;3.10;;
9789;SDS011;4934;50.852;8.098;2022-08-30T00:08:12;5.53;;;3.50;;
9789;SDS011;4934;50.852;8.098;2022-08-30T00:10:38;8.15;;;3.08;;
9789;SDS011;4934;50.852;8.098;2022-08-30T00:13:05;6.80;;;2.90;;
9789;SDS011;4934;50.852;8.098;2022-08-30T00:15:32;8.23;;;2.63;;
9789;SDS011;4934;50.852;8.098;2022-08-30T00:17:58;6.55;;;2.72;;
9789;SDS011;4934;50.852;8.098;2022-08-30T00:20:26;6.88;;;2.45;;
9789;SDS011;4934;50.852;8.098;2022-08-30T00:22:53;6.10;;;2.72;;
9789;SDS011;4934;50.852;8.098;2022-08-30T00:25:19;4.13;;;2.42;;
9789;SDS011;4934;50.852;8.098;2022-08-30T00:27:45;6.28;;;2.80;;
9789;SDS011;4934;50.852;8.098;2022-08-30T00:30:12;6.72;;;2.63;;
9789;SDS011;4934;50.852;8.098;2022-08-30T00:32:38;7.40;;;3.10;;
9789;SDS011;4934;50.852;8.098;2022-08-30T00:35:05;6.00;;;2.85;;
9789;SDS011;4934;50.852;8.098;2022-08-30T00:37:32;7.07;;;3.05;;
9789;SDS011;4934;50.852;8.098;2022-08-30T00:39:58;9.02;;;3.60;;
9789;SDS011;4934;50.852;8.098;2022-08-30T00:42:24;6.18;;;3.00;;
9789;SDS011;4934;50.852;8.098;2022-08-30T00:44:50;4.82;;;2.70;;
9789;SDS011;4934;50.852;8.098;2022-08-30T00:47:16;5.05;;;2.33;;
9789;SDS011;4934;50.852;8.098;2022-08-30T00:49:44;4.40;;;2.38;;
9789;SDS011;4934;50.852;8.098;2022-08-30T00:52:13;4.82;;;2.88;;
9789;SDS011;4934;50.852;8.098;2022-08-30T00:54:41;6.20;;;2.50;;
9789;SDS011;4934;50.852;8.098;2022-08-30T00:57:09;6.25;;;2.80;;
9789;SDS011;4934;50.852;8.098;2022-08-30T00:59:36;6.38;;;2.85;;
9789;SDS011;4934;50.852;8.098;2022-08-30T01:02:03;4.97;;;2.85;;
9789;SDS011;4934;50.852;8.098;2022-08-30T01:04:29;5.78;;;2.45;;
9789;SDS011;4934;50.852;8.098;2022-08-30T01:06:57;4.78;;;2.65;;
9789;SDS011;4934;50.852;8.098;2022-08-30T01:09:24;5.00;;;2.58;;
9789;SDS011;4934;50.852;8.098;2022-08-30T01:11:50;6.32;;;2.67;;
9789;SDS011;4934;50.852;8.098;2022-08-30T01:14:17;3.95;;;2.53;;
9789;SDS011;4934;50.852;8.098;2022-08-30T01:16:46;5.28;;;2.70;;
9789;SDS011;4934;50.852;8.098;2022-08-30T01:19:33;7.03;;;2.78;;
9789;SDS011;4934;50.852;8.098;2022-08-30T01:25:11;6.78;;;2.55;;
9789;SDS011;4934;50.852;8.098;2022-08-30T01:27:38;6.32;;;2.42;;
9789;SDS011;4934;50.852;8.098;2022-08-30T01:30:08;4.32;;;2.42;;
9789;SDS011;4934;50.852;8.098;2022-08-30T01:32:37;6.47;;;2.60;;
9789;SDS011;4934;50.852;8.098;2022-08-30T01:35:05;4.47;;;2.63;;
9789;SDS011;4934;50.852;8.098;2022-08-30T01:37:31;6.18;;;3.25;;
9789;SDS011;4934;50.852;8.098;2022-08-30T01:39:58;5.30;;;2.45;;
9789;SDS011;4934;50.852;8.098;2022-08-30T01:42:24;7.00;;;3.08;;
9789;SDS011;4934;50.852;8.098;2022-08-30T01:44:50;4.68;;;2.58;;
9789;SDS011;4934;50.852;8.098;2022-08-30T01:47:16;5.28;;;2.35;;
9789;SDS011;4934;50.852;8.098;2022-08-30T01:49:43;4.10;;;2.50;;
9789;SDS011;4934;50.852;8.098;2022-08-30T01:52:11;6.43;;;2.60;;
9789;SDS011;4934;50.852;8.098;2022-08-30T01:54:38;5.78;;;2.60;;
9789;SDS011;4934;50.852;8.098;2022-08-30T01:57:06;6.32;;;2.70;;
9789;SDS011;4934;50.852;8.098;2022-08-30T01:59:34;8.00;;;2.95;;
9789;SDS011;4934;50.852;8.098;2022-08-30T02:01:59;9.32;;;3.03;;
9789;SDS011;4934;50.852;8.098;2022-08-30T02:04:25;8.77;;;2.90;;
9789;SDS011;4934;50.852;8.098;2022-08-30T02:06:51;6.05;;;2.72;;
9789;SDS011;4934;50.852;8.098;2022-08-30T02:09:17;7.63;;;3.20;;
9789;SDS011;4934;50.852;8.098;2022-08-30T02:11:43;4.78;;;2.80;;
9789;SDS011;4934;50.852;8.098;2022-08-30T02:14:09;7.93;;;2.97;;
9789;SDS011;4934;50.852;8.098;2022-08-30T02:16:37;4.13;;;2.45;;
9789;SDS011;4934;50.852;8.098;2022-08-30T02:19:03;8.98;;;3.80;;
9789;SDS011;4934;50.852;8.098;2022-08-30T02:21:29;10.00;;;2.97;;
9789;SDS011;4934;50.852;8.098;2022-08-30T02:23:54;11.73;;;3.33;;
9789;SDS011;4934;50.852;8.098;2022-08-30T02:26:20;9.70;;;3.80;;
9789;SDS011;4934;50.852;8.098;2022-08-30T02:28:47;5.35;;;2.90;;
9789;SDS011;4934;50.852;8.098;2022-08-30T02:31:13;10.27;;;3.20;;
9789;SDS011;4934;50.852;8.098;2022-08-30T02:33:38;8.02;;;3.20;;
9789;SDS011;4934;50.852;8.098;2022-08-30T02:36:04;5.95;;;3.13;;
9789;SDS011;4934;50.852;8.098;2022-08-30T02:38:31;7.50;;;2.83;;
9789;SDS011;4934;50.852;8.098;2022-08-30T02:40:57;5.88;;;2.78;;
9789;SDS011;4934;50.852;8.098;2022-08-30T02:43:23;4.45;;;3.13;;
9789;SDS011;4934;50.852;8.098;2022-08-30T02:45:49;6.55;;;3.05;;
9789;SDS011;4934;50.852;8.098;2022-08-30T02:48:14;7.22;;;3.22;;
9789;SDS011;4934;50.852;8.098;2022-08-30T02:50:41;13.40;;;3.58;;
9789;SDS011;4934;50.852;8.098;2022-08-30T02:53:10;5.22;;;2.85;;
9789;SDS011;4934;50.852;8.098;2022-08-30T02:55:36;8.20;;;3.70;;
9789;SDS011;4934;50.852;8.098;2022-08-30T02:58:02;6.63;;;2.75;;
9789;SDS011;4934;50.852;8.098;2022-08-30T03:00:27;5.35;;;3.03;;
9789;SDS011;4934;50.852;8.098;2022-08-30T03:02:53;7.72;;;2.55;;
9789;SDS011;4934;50.852;8.098;2022-08-30T03:05:19;7.65;;;3.05;;
9789;SDS011;4934;50.852;8.098;2022-08-30T03:07:44;5.65;;;3.15;;
9789;SDS011;4934;50.852;8.098;2022-08-30T03:10:12;10.82;;;3.45;;
9789;SDS011;4934;50.852;8.098;2022-08-30T03:12:38;6.95;;;3.03;;
9789;SDS011;4934;50.852;8.098;2022-08-30T03:15:05;5.70;;;3.55;;
9789;SDS011;4934;50.852;8.098;2022-08-30T03:17:32;4.75;;;2.95;;
9789;SDS011;4934;50.852;8.098;2022-08-30T03:19:58;4.63;;;2.78;;
9789;SDS011;4934;50.852;8.098;2022-08-30T03:22:26;5.07;;;3.25;;
9789;SDS011;4934;50.852;8.098;2022-08-30T03:24:52;7.28;;;3.22;;
9789;SDS011;4934;50.852;8.098;2022-08-30T03:27:21;7.47;;;3.70;;
9789;SDS011;4934;50.852;8.098;2022-08-30T03:29:47;8.95;;;3.72;;
9789;SDS011;4934;50.852;8.098;2022-08-30T03:32:13;5.32;;;3.22;;
9789;SDS011;4934;50.852;8.098;2022-08-30T03:34:39;11.00;;;3.67;;
9789;SDS011;4934;50.852;8.098;2022-08-30T03:37:05;10.52;;;4.22;;
9789;SDS011;4934;50.852;8.098;2022-08-30T03:39:30;7.28;;;3.00;;
9789;SDS011;4934;50.852;8.098;2022-08-30T03:41:56;6.28;;;3.13;;
9789;SDS011;4934;50.852;8.098;2022-08-30T03:44:22;3.78;;;2.83;;
9789;SDS011;4934;50.852;8.098;2022-08-30T03:46:48;6.38;;;2.83;;
9789;SDS011;4934;50.852;8.098;2022-08-30T03:49:13;9.30;;;3.65;;
9789;SDS011;4934;50.852;8.098;2022-08-30T03:51:39;5.80;;;3.20;;
9789;SDS011;4934;50.852;8.098;2022-08-30T03:54:05;8.60;;;3.40;;
9789;SDS011;4934;50.852;8.098;2022-08-30T03:56:30;8.48;;;3.95;;
9789;SDS011;4934;50.852;8.098;2022-08-30T03:58:56;7.47;;;3.15;;
9789;SDS011;4934;50.852;8.098;2022-08-30T04:01:21;7.63;;;2.95;;
9789;SDS011;4934;50.852;8.098;2022-08-30T04:03:47;5.80;;;2.80;;
9789;SDS011;4934;50.852;8.098;2022-08-30T04:06:13;5.25;;;2.92;;
9789;SDS011;4934;50.852;8.098;2022-08-30T04:08:38;4.55;;;2.50;;
9789;SDS011;4934;50.852;8.098;2022-08-30T04:11:04;8.23;;;3.53;;
9789;SDS011;4934;50.852;8.098;2022-08-30T04:13:31;6.82;;;3.08;;
9789;SDS011;4934;50.852;8.098;2022-08-30T04:15:57;9.38;;;3.50;;
9789;SDS011;4934;50.852;8.098;2022-08-30T04:18:23;5.15;;;3.17;;
9789;SDS011;4934;50.852;8.098;2022-08-30T04:20:49;5.82;;;3.15;;
9789;SDS011;4934;50.852;8.098;2022-08-30T04:23:16;4.97;;;2.63;;
9789;SDS011;4934;50.852;8.098;2022-08-30T04:25:41;5.97;;;3.17;;
9789;SDS011;4934;50.852;8.098;2022-08-30T04:28:08;6.47;;;2.70;;
9789;SDS011;4934;50.852;8.098;2022-08-30T04:30:35;8.68;;;3.28;;
9789;SDS011;4934;50.852;8.098;2022-08-30T04:33:04;6.45;;;3.25;;
9789;SDS011;4934;50.852;8.098;2022-08-30T04:35:30;5.53;;;3.25;;
9789;SDS011;4934;50.852;8.098;2022-08-30T04:37:56;7.60;;;3.22;;
9789;SDS011;4934;50.852;8.098;2022-08-30T04:40:21;8.55;;;3.38;;
9789;SDS011;4934;50.852;8.098;2022-08-30T04:42:47;5.97;;;3.33;;
9789;SDS011;4934;50.852;8.098;2022-08-30T04:45:13;11.95;;;3.35;;
9789;SDS011;4934;50.852;8.098;2022-08-30T04:47:43;4.97;;;2.92;;
9789;SDS011;4934;50.852;8.098;2022-08-30T04:50:10;5.55;;;2.90;;
9789;SDS011;4934;50.852;8.098;2022-08-30T04:52:38;5.47;;;2.60;;
9789;SDS011;4934;50.852;8.098;2022-08-30T04:55:04;7.57;;;2.65;;
9789;SDS011;4934;50.852;8.098;2022-08-30T04:57:30;6.88;;;3.28;;
9789;SDS011;4934;50.852;8.098;2022-08-30T04:59:56;6.28;;;3.33;;
9789;SDS011;4934;50.852;8.098;2022-08-30T05:02:21;7.15;;;3.13;;
9789;SDS011;4934;50.852;8.098;2022-08-30T05:04:47;9.30;;;3.20;;
9789;SDS011;4934;50.852;8.098;2022-08-30T05:07:32;7.25;;;4.03;;
9789;SDS011;4934;50.852;8.098;2022-08-30T05:09:58;8.05;;;3.95;;
9789;SDS011;4934;50.852;8.098;2022-08-30T05:12:24;6.78;;;3.60;;
9789;SDS011;4934;50.852;8.098;2022-08-30T05:14:50;8.88;;;3.88;;
9789;SDS011;4934;50.852;8.098;2022-08-30T05:17:16;8.85;;;3.88;;
9789;SDS011;4934;50.852;8.098;2022-08-30T05:19:41;7.57;;;3.83;;
9789;SDS011;4934;50.852;8.098;2022-08-30T05:22:07;7.47;;;3.35;;
9789;SDS011;4934;50.852;8.098;2022-08-30T05:24:33;9.23;;;4.95;;
9789;SDS011;4934;50.852;8.098;2022-08-30T05:26:59;8.05;;;4.43;;
9789;SDS011;4934;50.852;8.098;2022-08-30T05:29:25;7.95;;;4.13;;
9789;SDS011;4934;50.852;8.098;2022-08-30T05:31:50;9.27;;;4.32;;
9789;SDS011;4934;50.852;8.098;2022-08-30T05:34:16;10.25;;;4.35;;
9789;SDS011;4934;50.852;8.098;2022-08-30T05:36:42;13.98;;;4.63;;
9789;SDS011;4934;50.852;8.098;2022-08-30T05:39:08;12.45;;;4.05;;
9789;SDS011;4934;50.852;8.098;2022-08-30T05:41:35;9.68;;;4.35;;
9789;SDS011;4934;50.852;8.098;2022-08-30T05:44:01;8.07;;;4.28;;
9789;SDS011;4934;50.852;8.098;2022-08-30T05:46:29;11.60;;;4.85;;
9789;SDS011;4934;50.852;8.098;2022-08-30T05:48:57;14.63;;;4.75;;
9789;SDS011;4934;50.852;8.098;2022-08-30T05:51:26;13.75;;;4.70;;
9789;SDS011;4934;50.852;8.098;2022-08-30T05:53:53;11.77;;;4.55;;
9789;SDS011;4934;50.852;8.098;2022-08-30T05:56:20;10.50;;;4.40;;
9789;SDS011;4934;50.852;8.098;2022-08-30T05:58:47;7.68;;;4.82;;
9789;SDS011;4934;50.852;8.098;2022-08-30T06:01:20;10.63;;;4.72;;
9789;SDS011;4934;50.852;8.098;2022-08-30T06:03:47;14.25;;;4.80;;
9789;SDS011;4934;50.852;8.098;2022-08-30T06:06:13;10.27;;;4.93;;
9789;SDS011;4934;50.852;8.098;2022-08-30T06:08:39;11.13;;;4.53;;
9789;SDS011;4934;50.852;8.098;2022-08-30T06:11:06;8.10;;;4.97;;
9789;SDS011;4934;50.852;8.098;2022-08-30T06:13:32;10.75;;;4.00;;
9789;SDS011;4934;50.852;8.098;2022-08-30T06:15:58;15.13;;;4.60;;
9789;SDS011;4934;50.852;8.098;2022-08-30T06:18:23;11.07;;;4.07;;
9789;SDS011;4934;50.852;8.098;2022-08-30T06:20:49;10.45;;;4.35;;
9789;SDS011;4934;50.852;8.098;2022-08-30T06:23:15;15.27;;;4.57;;
9789;SDS011;4934;50.852;8.098;2022-08-30T06:28:09;6.97;;;3.80;;
9789;SDS011;4934;50.852;8.098;2022-08-30T06:30:37;9.60;;;4.20;;
9789;SDS011;4934;50.852;8.098;2022-08-30T06:33:04;11.00;;;4.28;;
9789;SDS011;4934;50.852;8.098;2022-08-30T06:35:29;12.90;;;4.30;;
9789;SDS011;4934;50.852;8.098;2022-08-30T06:37:56;6.57;;;4.10;;
9789;SDS011;4934;50.852;8.098;2022-08-30T06:40:21;10.07;;;4.78;;
9789;SDS011;4934;50.852;8.098;2022-08-30T06:42:47;12.05;;;4.55;;
9789;SDS011;4934;50.852;8.098;2022-08-30T06:45:14;8.95;;;4.28;;
9789;SDS011;4934;50.852;8.098;2022-08-30T06:47:40;7.07;;;4.00;;
9789;SDS011;4934;50.852;8.098;2022-08-30T06:50:06;9.57;;;4.05;;
9789;SDS011;4934;50.852;8.098;2022-08-30T06:52:33;13.02;;;4.68;;
9789;SDS011;4934;50.852;8.098;2022-08-30T06:54:59;7.20;;;4.47;;
9789;SDS011;4934;50.852;8.098;2022-08-30T06:57:24;11.68;;;4.63;;
9789;SDS011;4934;50.852;8.098;2022-08-30T06:59:54;10.60;;;4.70;;
9789;SDS011;4934;50.852;8.098;2022-08-30T07:02:20;9.98;;;4.10;;
9789;SDS011;4934;50.852;8.098;2022-08-30T07:04:46;14.93;;;3.92;;
9789;SDS011;4934;50.852;8.098;2022-08-30T07:07:12;8.38;;;4.30;;
9789;SDS011;4934;50.852;8.098;2022-08-30T07:09:38;6.15;;;3.47;;
9789;SDS011;4934;50.852;8.098;2022-08-30T07:12:11;14.40;;;4.10;;
9789;SDS011;4934;50.852;8.098;2022-08-30T07:14:38;9.75;;;4.00;;
9789;SDS011;4934;50.852;8.098;2022-08-30T07:17:04;9.60;;;4.35;;
9789;SDS011;4934;50.852;8.098;2022-08-30T07:19:50;10.63;;;3.50;;
9789;SDS011;4934;50.852;8.098;2022-08-30T07:22:16;20.95;;;4.03;;
9789;SDS011;4934;50.852;8.098;2022-08-30T07:24:41;22.77;;;5.25;;
9789;SDS011;4934;50.852;8.098;2022-08-30T07:27:07;17.05;;;4.60;;
9789;SDS011;4934;50.852;8.098;2022-08-30T07:29:33;22.85;;;4.88;;
9789;SDS011;4934;50.852;8.098;2022-08-30T07:31:58;6.43;;;3.72;;
9789;SDS011;4934;50.852;8.098;2022-08-30T07:34:24;11.05;;;4.40;;
9789;SDS011;4934;50.852;8.098;2022-08-30T07:36:50;9.38;;;3.60;;
9789;SDS011;4934;50.852;8.098;2022-08-30T07:39:15;12.82;;;4.20;;
9789;SDS011;4934;50.852;8.098;2022-08-30T07:41:41;10.93;;;3.63;;
9789;SDS011;4934;50.852;8.098;2022-08-30T07:44:08;10.65;;;4.10;;
9789;SDS011;4934;50.852;8.098;2022-08-30T07:46:34;7.70;;;3.60;;
9789;SDS011;4934;50.852;8.098;2022-08-30T07:49:02;7.18;;;3.35;;
9789;SDS011;4934;50.852;8.098;2022-08-30T07:51:27;8.13;;;3.95;;
9789;SDS011;4934;50.852;8.098;2022-08-30T07:53:54;7.03;;;3.13;;
9789;SDS011;4934;50.852;8.098;2022-08-30T07:56:20;10.38;;;3.80;;
9789;SDS011;4934;50.852;8.098;2022-08-30T07:58:46;13.85;;;3.40;;
9789;SDS011;4934;50.852;8.098;2022-08-30T08:01:12;12.55;;;2.90;;
9789;SDS011;4934;50.852;8.098;2022-08-30T08:03:39;6.55;;;3.00;;
9789;SDS011;4934;50.852;8.098;2022-08-30T08:06:06;4.97;;;2.90;;
9789;SDS011;4934;50.852;8.098;2022-08-30T08:08:33;8.57;;;3.03;;
9789;SDS011;4934;50.852;8.098;2022-08-30T08:11:09;5.38;;;2.25;;
9789;SDS011;4934;50.852;8.098;2022-08-30T08:13:38;7.30;;;2.78;;
9789;SDS011;4934;50.852;8.098;2022-08-30T08:16:04;6.95;;;2.20;;
9789;SDS011;4934;50.852;8.098;2022-08-30T08:18:30;4.88;;;2.28;;
9789;SDS011;4934;50.852;8.098;2022-08-30T08:20:56;5.70;;;2.33;;
9789;SDS011;4934;50.852;8.098;2022-08-30T08:23:23;6.95;;;2.35;;
9789;SDS011;4934;50.852;8.098;2022-08-30T08:25:48;5.07;;;2.22;;
9789;SDS011;4934;50.852;8.098;2022-08-30T08:28:14;4.97;;;2.30;;
9789;SDS011;4934;50.852;8.098;2022-08-30T08:30:40;8.52;;;2.65;;
9789;SDS011;4934;50.852;8.098;2022-08-30T08:33:05;9.70;;;2.67;;
9789;SDS011;4934;50.852;8.098;2022-08-30T08:35:31;5.75;;;2.40;;
9789;SDS011;4934;50.852;8.098;2022-08-30T08:37:57;6.07;;;2.63;;
9789;SDS011;4934;50.852;8.098;2022-08-30T08:40:23;5.03;;;2.38;;
9789;SDS011;4934;50.852;8.098;2022-08-30T08:45:39;6.72;;;2.85;;
9789;SDS011;4934;50.852;8.098;2022-08-30T08:51:00;8.52;;;2.85;;
9789;SDS011;4934;50.852;8.098;2022-08-30T08:53:47;7.72;;;2.63;;
9789;SDS011;4934;50.852;8.098;2022-08-30T08:56:17;3.72;;;2.10;;
9789;SDS011;4934;50.852;8.098;2022-08-30T08:58:46;6.30;;;2.40;;
9789;SDS011;4934;50.852;8.098;2022-08-30T09:01:20;5.90;;;2.50;;
9789;SDS011;4934;50.852;8.098;2022-08-30T09:03:47;5.10;;;2.33;;
9789;SDS011;4934;50.852;8.098;2022-08-30T09:09:28;4.47;;;1.85;;
9789;SDS011;4934;50.852;8.098;2022-08-30T09:11:57;4.95;;;2.22;;
9789;SDS011;4934;50.852;8.098;2022-08-30T09:14:32;3.47;;;2.10;;
9789;SDS011;4934;50.852;8.098;2022-08-30T09:17:00;6.07;;;2.55;;
9789;SDS011;4934;50.852;8.098;2022-08-30T09:19:44;8.27;;;2.60;;
9789;SDS011;4934;50.852;8.098;2022-08-30T09:22:21;4.32;;;2.13;;
9789;SDS011;4934;50.852;8.098;2022-08-30T09:25:06;6.32;;;2.10;;
9789;SDS011;4934;50.852;8.098;2022-08-30T09:27:43;7.53;;;2.63;;
9789;SDS011;4934;50.852;8.098;2022-08-30T09:30:14;5.28;;;2.33;;
9789;SDS011;4934;50.852;8.098;2022-08-30T09:33:14;5.72;;;2.30;;
9789;SDS011;4934;50.852;8.098;2022-08-30T09:35:46;5.65;;;2.75;;
9789;SDS011;4934;50.852;8.098;2022-08-30T09:38:20;4.78;;;2.15;;
9789;SDS011;4934;50.852;8.098;2022-08-30T09:41:01;5.75;;;2.30;;
9789;SDS011;4934;50.852;8.098;2022-08-30T09:44:09;3.38;;;2.10;;
9789;SDS011;4934;50.852;8.098;2022-08-30T09:57:39;9.88;;;2.45;;
9789;SDS011;4934;50.852;8.098;2022-08-30T10:00:25;4.65;;;2.72;;
9789;SDS011;4934;50.852;8.098;2022-08-30T10:05:51;4.32;;;2.30;;
9789;SDS011;4934;50.852;8.098;2022-08-30T10:12:11;5.43;;;2.50;;
9789;SDS011;4934;50.852;8.098;2022-08-30T10:22:50;4.85;;;2.13;;
9789;SDS011;4934;50.852;8.098;2022-08-30T10:25:33;6.82;;;2.17;;
9789;SDS011;4934;50.852;8.098;2022-08-30T10:28:08;5.75;;;2.60;;
9789;SDS011;4934;50.852;8.098;2022-08-30T10:33:16;7.68;;;2.63;;
9789;SDS011;4934;50.852;8.098;2022-08-30T10:35:48;4.25;;;2.45;;
9789;SDS011;4934;50.852;8.098;2022-08-30T10:38:24;3.97;;;2.38;;
9789;SDS011;4934;50.852;8.098;2022-08-30T10:49:18;6.75;;;2.83;;
9789;SDS011;4934;50.852;8.098;2022-08-30T10:51:57;7.15;;;2.78;;
9789;SDS011;4934;50.852;8.098;2022-08-30T10:54:51;4.32;;;2.13;;
9789;SDS011;4934;50.852;8.098;2022-08-30T10:57:22;3.20;;;2.20;;
9789;SDS011;4934;50.852;8.098;2022-08-30T10:59:50;5.05;;;2.75;;
9789;SDS011;4934;50.852;8.098;2022-08-30T11:02:57;6.75;;;2.55;;
9789;SDS011;4934;50.852;8.098;2022-08-30T11:11:12;7.50;;;2.25;;
9789;SDS011;4934;50.852;8.098;2022-08-30T11:13:54;4.13;;;2.42;;
9789;SDS011;4934;50.852;8.098;2022-08-30T11:16:21;5.80;;;2.63;;
9789;SDS011;4934;50.852;8.098;2022-08-30T11:19:02;6.47;;;2.67;;
9789;SDS011;4934;50.852;8.098;2022-08-30T11:21:48;8.43;;;2.53;;
9789;SDS011;4934;50.852;8.098;2022-08-30T11:24:18;7.28;;;2.65;;
9789;SDS011;4934;50.852;8.098;2022-08-30T11:26:53;5.00;;;2.47;;
9789;SDS011;4934;50.852;8.098;2022-08-30T11:37:10;4.85;;;2.67;;
9789;SDS011;4934;50.852;8.098;2022-08-30T11:39:42;8.38;;;2.85;;
9789;SDS011;4934;50.852;8.098;2022-08-30T11:42:35;7.38;;;2.80;;
9789;SDS011;4934;50.852;8.098;2022-08-30T11:47:54;4.32;;;2.88;;
9789;SDS011;4934;50.852;8.098;2022-08-30T11:59:06;7.40;;;2.90;;
9789;SDS011;4934;50.852;8.098;2022-08-30T12:01:43;7.32;;;3.05;;
9789;SDS011;4934;50.852;8.098;2022-08-30T12:04:24;5.53;;;2.72;;
9789;SDS011;4934;50.852;8.098;2022-08-30T12:06:53;6.22;;;2.83;;
9789;SDS011;4934;50.852;8.098;2022-08-30T12:11:59;5.05;;;3.55;;
9789;SDS011;4934;50.852;8.098;2022-08-30T12:14:48;6.32;;;3.03;;
9789;SDS011;4934;50.852;8.098;2022-08-30T12:20:28;7.60;;;2.47;;
9789;SDS011;4934;50.852;8.098;2022-08-30T12:23:14;6.90;;;2.63;;
9789;SDS011;4934;50.852;8.098;2022-08-30T12:25:41;6.63;;;2.88;;
9789;SDS011;4934;50.852;8.098;2022-08-30T12:28:07;4.85;;;3.10;;
9789;SDS011;4934;50.852;8.098;2022-08-30T12:30:34;5.65;;;3.03;;
9789;SDS011;4934;50.852;8.098;2022-08-30T12:33:03;7.18;;;2.65;;
9789;SDS011;4934;50.852;8.098;2022-08-30T12:35:29;4.85;;;2.88;;
9789;SDS011;4934;50.852;8.098;2022-08-30T12:38:00;6.00;;;2.80;;
9789;SDS011;4934;50.852;8.098;2022-08-30T12:40:30;6.07;;;2.53;;
9789;SDS011;4934;50.852;8.098;2022-08-30T12:43:03;7.35;;;2.92;;
9789;SDS011;4934;50.852;8.098;2022-08-30T12:45:32;6.63;;;2.60;;
9789;SDS011;4934;50.852;8.098;2022-08-30T12:48:05;5.10;;;2.53;;
9789;SDS011;4934;50.852;8.098;2022-08-30T12:50:35;7.00;;;3.08;;
9789;SDS011;4934;50.852;8.098;2022-08-30T12:53:16;14.73;;;4.15;;
9789;SDS011;4934;50.852;8.098;2022-08-30T12:56:12;5.90;;;2.67;;
9789;SDS011;4934;50.852;8.098;2022-08-30T13:03:39;12.50;;;3.17;;
9789;SDS011;4934;50.852;8.098;2022-08-30T13:06:05;5.90;;;3.15;;
9789;SDS011;4934;50.852;8.098;2022-08-30T13:11:24;6.07;;;3.05;;
9789;SDS011;4934;50.852;8.098;2022-08-30T13:14:18;5.03;;;3.08;;
9789;SDS011;4934;50.852;8.098;2022-08-30T13:20:03;4.70;;;2.58;;
9789;SDS011;4934;50.852;8.098;2022-08-30T13:25:32;4.80;;;2.88;;
9789;SDS011;4934;50.852;8.098;2022-08-30T13:27:59;4.18;;;3.03;;
9789;SDS011;4934;50.852;8.098;2022-08-30T13:30:26;8.38;;;2.80;;
9789;SDS011;4934;50.852;8.098;2022-08-30T13:32:52;5.43;;;2.67;;
9789;SDS011;4934;50.852;8.098;2022-08-30T13:35:19;4.68;;;2.90;;
9789;SDS011;4934;50.852;8.098;2022-08-30T13:37:44;6.43;;;3.33;;
9789;SDS011;4934;50.852;8.098;2022-08-30T13:40:11;7.68;;;2.90;;
9789;SDS011;4934;50.852;8.098;2022-08-30T13:42:38;5.53;;;3.10;;
9789;SDS011;4934;50.852;8.098;2022-08-30T13:45:07;6.32;;;3.10;;
9789;SDS011;4934;50.852;8.098;2022-08-30T13:47:33;8.65;;;3.20;;
9789;SDS011;4934;50.852;8.098;2022-08-30T13:49:59;7.15;;;3.17;;
9789;SDS011;4934;50.852;8.098;2022-08-30T13:52:25;5.00;;;2.75;;
9789;SDS011;4934;50.852;8.098;2022-08-30T13:54:51;5.60;;;3.47;;
9789;SDS011;4934;50.852;8.098;2022-08-30T13:57:19;7.80;;;3.42;;
9789;SDS011;4934;50.852;8.098;2022-08-30T13:59:47;7.20;;;3.08;;
9789;SDS011;4934;50.852;8.098;2022-08-30T14:02:12;5.78;;;2.60;;
9789;SDS011;4934;50.852;8.098;2022-08-30T14:04:38;4.45;;;2.92;;
9789;SDS011;4934;50.852;8.098;2022-08-30T14:07:03;10.18;;;3.40;;
9789;SDS011;4934;50.852;8.098;2022-08-30T14:09:29;6.57;;;3.17;;
9789;SDS011;4934;50.852;8.098;2022-08-30T14:11:55;6.57;;;2.92;;
9789;SDS011;4934;50.852;8.098;2022-08-30T14:14:21;8.23;;;3.28;;
9789;SDS011;4934;50.852;8.098;2022-08-30T14:16:46;6.68;;;3.28;;
9789;SDS011;4934;50.852;8.098;2022-08-30T14:19:13;6.57;;;3.35;;
9789;SDS011;4934;50.852;8.098;2022-08-30T14:21:40;9.17;;;3.73;;
9789;SDS011;4934;50.852;8.098;2022-08-30T14:24:06;10.05;;;3.00;;
9789;SDS011;4934;50.852;8.098;2022-08-30T14:26:34;5.00;;;3.30;;
9789;SDS011;4934;50.852;8.098;2022-08-30T14:29:03;5.88;;;3.10;;
9789;SDS011;4934;50.852;8.098;2022-08-30T14:31:30;8.07;;;3.35;;
9789;SDS011;4934;50.852;8.098;2022-08-30T14:33:56;6.88;;;2.92;;
9789;SDS011;4934;50.852;8.098;2022-08-30T14:36:22;8.85;;;3.17;;
9789;SDS011;4934;50.852;8.098;2022-08-30T14:38:47;6.15;;;3.10;;
9789;SDS011;4934;50.852;8.098;2022-08-30T14:41:13;7.95;;;3.40;;
9789;SDS011;4934;50.852;8.098;2022-08-30T14:43:39;6.97;;;2.92;;
9789;SDS011;4934;50.852;8.098;2022-08-30T14:46:05;6.50;;;2.80;;
9789;SDS011;4934;50.852;8.098;2022-08-30T14:48:31;6.45;;;3.50;;
9789;SDS011;4934;50.852;8.098;2022-08-30T14:50:57;6.25;;;3.35;;
9789;SDS011;4934;50.852;8.098;2022-08-30T14:53:23;7.25;;;4.00;;
9789;SDS011;4934;50.852;8.098;2022-08-30T14:55:49;9.35;;;3.05;;
9789;SDS011;4934;50.852;8.098;2022-08-30T14:58:14;6.03;;;3.55;;
9789;SDS011;4934;50.852;8.098;2022-08-30T15:00:41;6.95;;;3.70;;
9789;SDS011;4934;50.852;8.098;2022-08-30T15:03:13;4.40;;;2.95;;
9789;SDS011;4934;50.852;8.098;2022-08-30T15:05:39;6.68;;;3.47;;
9789;SDS011;4934;50.852;8.098;2022-08-30T15:08:06;6.03;;;3.40;;
9789;SDS011;4934;50.852;8.098;2022-08-30T15:10:31;6.47;;;2.95;;
9789;SDS011;4934;50.852;8.098;2022-08-30T15:12:57;6.22;;;3.03;;
9789;SDS011;4934;50.852;8.098;2022-08-30T15:15:22;9.73;;;3.42;;
9789;SDS011;4934;50.852;8.098;2022-08-30T15:17:48;8.93;;;3.22;;
9789;SDS011;4934;50.852;8.098;2022-08-30T15:20:14;12.18;;;3.85;;
9789;SDS011;4934;50.852;8.098;2022-08-30T15:22:42;7.30;;;3.13;;
9789;SDS011;4934;50.852;8.098;2022-08-30T15:25:08;6.40;;;2.72;;
9789;SDS011;4934;50.852;8.098;2022-08-30T15:27:34;9.95;;;3.55;;
9789;SDS011;4934;50.852;8.098;2022-08-30T15:30:00;6.50;;;3.17;;
9789;SDS011;4934;50.852;8.098;2022-08-30T15:32:26;4.70;;;3.20;;
9789;SDS011;4934;50.852;8.098;2022-08-30T15:34:51;7.70;;;3.97;;
9789;SDS011;4934;50.852;8.098;2022-08-30T15:37:17;6.03;;;3.33;;
9789;SDS011;4934;50.852;8.098;2022-08-30T15:39:47;8.73;;;4.22;;
9789;SDS011;4934;50.852;8.098;2022-08-30T15:42:13;6.38;;;3.38;;
9789;SDS011;4934;50.852;8.098;2022-08-30T15:44:39;5.57;;;3.25;;
9789;SDS011;4934;50.852;8.098;2022-08-30T15:47:05;5.30;;;2.95;;
9789;SDS011;4934;50.852;8.098;2022-08-30T15:49:30;6.85;;;3.13;;
9789;SDS011;4934;50.852;8.098;2022-08-30T15:51:58;7.35;;;2.85;;
9789;SDS011;4934;50.852;8.098;2022-08-30T15:54:25;6.65;;;3.10;;
9789;SDS011;4934;50.852;8.098;2022-08-30T15:56:51;6.88;;;3.30;;
9789;SDS011;4934;50.852;8.098;2022-08-30T15:59:23;6.82;;;3.25;;
9789;SDS011;4934;50.852;8.098;2022-08-30T16:01:49;5.93;;;3.10;;
9789;SDS011;4934;50.852;8.098;2022-08-30T16:04:15;5.80;;;3.38;;
9789;SDS011;4934;50.852;8.098;2022-08-30T16:06:41;5.32;;;2.97;;
9789;SDS011;4934;50.852;8.098;2022-08-30T16:09:07;4.85;;;2.80;;
9789;SDS011;4934;50.852;8.098;2022-08-30T16:11:34;5.57;;;2.97;;
9789;SDS011;4934;50.852;8.098;2022-08-30T16:14:00;9.48;;;3.33;;
9789;SDS011;4934;50.852;8.098;2022-08-30T16:16:26;4.95;;;2.50;;
9789;SDS011;4934;50.852;8.098;2022-08-30T16:18:52;5.70;;;2.80;;
9789;SDS011;4934;50.852;8.098;2022-08-30T16:21:22;5.22;;;2.80;;
9789;SDS011;4934;50.852;8.098;2022-08-30T16:23:49;7.70;;;3.33;;
9789;SDS011;4934;50.852;8.098;2022-08-30T16:26:15;5.95;;;3.22;;
9789;SDS011;4934;50.852;8.098;2022-08-30T16:28:45;8.73;;;3.30;;
9789;SDS011;4934;50.852;8.098;2022-08-30T16:31:12;7.55;;;3.15;;
9789;SDS011;4934;50.852;8.098;2022-08-30T16:33:39;4.03;;;2.97;;
9789;SDS011;4934;50.852;8.098;2022-08-30T16:36:05;6.20;;;2.83;;
9789;SDS011;4934;50.852;8.098;2022-08-30T16:38:31;5.93;;;3.22;;
9789;SDS011;4934;50.852;8.098;2022-08-30T16:41:01;6.50;;;3.13;;
9789;SDS011;4934;50.852;8.098;2022-08-30T16:43:32;7.70;;;3.22;;
9789;SDS011;4934;50.852;8.098;2022-08-30T16:46:01;8.88;;;2.80;;
9789;SDS011;4934;50.852;8.098;2022-08-30T16:48:28;5.22;;;3.22;;
9789;SDS011;4934;50.852;8.098;2022-08-30T16:50:54;4.78;;;2.95;;
9789;SDS011;4934;50.852;8.098;2022-08-30T16:53:21;8.23;;;3.58;;
9789;SDS011;4934;50.852;8.098;2022-08-30T16:55:47;6.82;;;3.15;;